Time;durP1;ratioP1;P1;durP2;ratioP2;P2;SDS_P1;SDS_P2;PMS_P1;PMS_P2;Temp;Humidity;BMP_temperature;BMP_pressure;BME280_temperature;BME280_humidity;BME280_pressure;Samples;Min_cycle;Max_cycle;Signal;HPM_P1;HPM_P2
2022/09/05 00:01:24;;;;;;;3.78;1.88;;;;;;;;;;6184470;23;20430;-77
2022/09/05 00:04:05;;;;;;;4.35;1.70;;;;;;;;;;6158198;23;20005;-77
2022/09/05 00:06:31;;;;;;;4.15;2.00;;;;;;;;;;6158365;23;20341;-77
2022/09/05 00:08:57;;;;;;;;;;;;;;;;;;6134198;23;20005;-78
2022/09/05 00:11:36;;;;;;;3.25;1.85;;;;;;;;;;6157882;23;20363;-77
2022/09/05 00:14:06;;;;;;;6.63;1.98;;;;;;;;;;6158473;23;20013;-78
2022/09/05 00:16:50;;;;;;;3.85;2.00;;;;;;;;;;6158755;23;20013;-77
2022/09/05 00:19:15;;;;;;;4.95;1.73;;;;;;;;;;6158059;23;20349;-77
2022/09/05 00:21:41;;;;;;;;;;;;;;;;;;6158808;23;20001;-77
2022/09/05 00:24:12;;;;;;;4.25;1.70;;;;;;;;;;6184507;23;19974;-78
2022/09/05 00:26:47;;;;;;;3.40;1.73;;;;;;;;;;6158096;23;20012;-76
2022/09/05 00:29:18;;;;;;;7.40;2.22;;;;;;;;;;6157882;23;20353;-77
2022/09/05 00:31:59;;;;;;;4.82;2.00;;;;;;;;;;6183996;23;20013;-77
2022/09/05 00:34:45;;;;;;;6.65;1.90;;;;;;;;;;6158290;23;20020;-77
2022/09/05 00:37:10;;;;;;;3.55;1.73;;;;;;;;;;6168378;23;20055;-77
2022/09/05 00:39:36;;;;;;;;;;;;;;;;;;6133798;23;19997;-77
2022/09/05 00:42:08;;;;;;;3.35;1.85;;;;;;;;;;6157273;23;20275;-77
2022/09/05 00:44:34;;;;;;;3.78;1.58;;;;;;;;;;6133303;23;20017;-77
2022/09/05 00:47:00;;;;;;;;;;;;;;;;;;6158573;23;20035;-77
2022/09/05 00:49:31;;;;;;;4.80;1.83;;;;;;;;;;6182735;23;19908;-77
2022/09/05 00:52:09;;;;;;;5.78;1.73;;;;;;;;;;6157651;23;20017;-76
2022/09/05 00:54:53;;;;;;;2.47;1.60;;;;;;;;;;6133314;23;20063;-77
2022/09/05 00:57:34;;;;;;;4.18;1.77;;;;;;;;;;6183864;23;20412;-76
2022/09/05 01:00:09;;;;;;;6.28;1.60;;;;;;;;;;6157402;23;20013;-77
2022/09/05 01:02:43;;;;;;;3.55;1.55;;;;;;;;;;6158159;23;20024;-78
2022/09/05 01:05:15;;;;;;;3.60;1.23;;;;;;;;;;6157679;23;20456;-76
2022/09/05 01:07:47;;;;;;;3.42;1.55;;;;;;;;;;6157966;23;20017;-76
2022/09/05 01:10:19;;;;;;;2.70;1.50;;;;;;;;;;6157565;23;20020;-76
2022/09/05 01:12:56;;;;;;;1.92;1.27;;;;;;;;;;6157653;23;20107;-78
2022/09/05 01:15:24;;;;;;;2.63;1.58;;;;;;;;;;6158004;23;20015;-77
2022/09/05 01:17:56;;;;;;;3.47;1.48;;;;;;;;;;6158157;23;20001;-77
2022/09/05 01:20:28;;;;;;;3.47;1.50;;;;;;;;;;6133212;23;20013;-77
2022/09/05 01:22:56;;;;;;;3.08;1.67;;;;;;;;;;6184014;23;20050;-77
2022/09/05 01:25:22;;;;;;;3.88;1.80;;;;;;;;;;6182489;23;20001;-77
2022/09/05 01:27:47;;;;;;;;;;;;;;;;;;6158362;23;20013;-78
2022/09/05 01:30:13;;;;;;;2.63;1.52;;;;;;;;;;6182637;23;20290;-77
2022/09/05 01:32:38;;;;;;;;;;;;;;;;;;6157775;23;20085;-77
2022/09/05 01:35:22;;;;;;;3.47;1.50;;;;;;;;;;6182741;23;19931;-77
2022/09/05 01:37:49;;;;;;;3.67;1.63;;;;;;;;;;6156727;23;20055;-77
2022/09/05 01:40:15;;;;;;;3.20;1.65;;;;;;;;;;6156827;23;20005;-77
2022/09/05 01:42:40;;;;;;;;;;;;;;;;;;6182992;23;20013;-77
2022/09/05 01:45:14;;;;;;;3.63;1.50;;;;;;;;;;6182692;23;19904;-78
2022/09/05 01:47:55;;;;;;;5.63;1.50;;;;;;;;;;6156349;23;20086;-76
2022/09/05 01:50:40;;;;;;;4.32;1.50;;;;;;;;;;6156526;23;20024;-77
2022/09/05 01:53:09;;;;;;;4.55;1.67;;;;;;;;;;6183535;23;20032;-77
2022/09/05 01:55:53;;;;;;;5.03;1.67;;;;;;;;;;6133606;23;20001;-77
2022/09/05 01:58:31;;;;;;;6.00;1.80;;;;;;;;;;6184361;23;20020;-77
2022/09/05 02:01:01;;;;;;;6.82;1.65;;;;;;;;;;6157964;23;20100;-77
2022/09/05 02:03:40;;;;;;;5.32;1.60;;;;;;;;;;6158463;23;20361;-77
2022/09/05 02:06:25;;;;;;;7.00;1.98;;;;;;;;;;6158428;23;20013;-77
2022/09/05 02:09:09;;;;;;;3.42;1.75;;;;;;;;;;6184763;23;20013;-77
2022/09/05 02:11:41;;;;;;;5.15;1.42;;;;;;;;;;6133909;23;20721;-77
2022/09/05 02:14:27;;;;;;;5.45;1.60;;;;;;;;;;6158377;23;20028;-77
2022/09/05 02:16:53;;;;;;;5.18;1.65;;;;;;;;;;6183637;23;20036;-77
2022/09/05 02:19:21;;;;;;;6.28;1.70;;;;;;;;;;6158252;23;19997;-77
2022/09/05 02:21:56;;;;;;;6.35;1.70;;;;;;;;;;6157890;23;20036;-77
2022/09/05 02:24:22;;;;;;;5.50;2.10;;;;;;;;;;6157887;23;20103;-77
2022/09/05 02:26:48;;;;;;;;;;;;;;;;;;6158538;23;20079;-77
2022/09/05 02:29:19;;;;;;;3.40;1.52;;;;;;;;;;6182894;23;19908;-77
2022/09/05 02:31:47;;;;;;;3.00;1.73;;;;;;;;;;6158045;23;20016;-77
2022/09/05 02:34:31;;;;;;;3.97;1.75;;;;;;;;;;6158018;23;20001;-77
2022/09/05 02:37:02;;;;;;;6.82;1.85;;;;;;;;;;6183919;23;20005;-77
2022/09/05 02:39:28;;;;;;;4.47;2.30;;;;;;;;;;6157793;23;20009;-77
2022/09/05 02:41:53;;;;;;;;;;;;;;;;;;6158172;23;20325;-78
2022/09/05 02:44:18;;;;;;;4.50;1.92;;;;;;;;;;6182638;23;20305;-78
2022/09/05 02:46:45;;;;;;;;;;;;;;;;;;6184565;23;20025;-78
2022/09/05 02:49:26;;;;;;;4.78;1.83;;;;;;;;;;6182413;23;19915;-78
2022/09/05 02:52:11;;;;;;;4.93;1.60;;;;;;;;;;6158083;23;20017;-78
2022/09/05 02:54:46;;;;;;;5.65;2.00;;;;;;;;;;6183309;23;20035;-79
2022/09/05 02:57:17;;;;;;;7.05;1.90;;;;;;;;;;6133081;23;20017;-78
2022/09/05 02:59:46;;;;;;;9.38;2.15;;;;;;;;;;6133170;23;20346;-78
2022/09/05 03:02:27;;;;;;;7.95;1.95;;;;;;;;;;6157721;23;20023;-78
2022/09/05 03:04:52;;;;;;;8.38;2.33;;;;;;;;;;6183252;23;20353;-78
2022/09/05 03:07:18;;;;;;;;;;;;;;;;;;6182684;23;20053;-78
2022/09/05 03:09:43;;;;;;;7.13;2.03;;;;;;;;;;6183837;23;19908;-77
2022/09/05 03:12:18;;;;;;;5.75;1.95;;;;;;;;;;6157889;23;20056;-77
2022/09/05 03:14:47;;;;;;;7.63;2.22;;;;;;;;;;6157591;23;20012;-77
2022/09/05 03:17:12;;;;;;;6.78;1.80;;;;;;;;;;6183796;23;20425;-78
2022/09/05 03:19:38;;;;;;;;;;;;;;;;;;6157978;23;20020;-78
2022/09/05 03:22:06;;;;;;;5.47;1.88;;;;;;;;;;6182610;23;19910;-78
2022/09/05 03:24:41;;;;;;;6.28;1.75;;;;;;;;;;6184742;23;20019;-77
2022/09/05 03:27:07;;;;;;;10.10;2.47;;;;;;;;;;6183483;23;20436;-77
2022/09/05 03:29:32;;;;;;;;;;;;;;;;;;6158002;23;20069;-78
2022/09/05 03:32:16;;;;;;;8.25;2.20;;;;;;;;;;6182395;23;19943;-78
2022/09/05 03:34:42;;;;;;;6.70;2.00;;;;;;;;;;6183697;23;20009;-78
2022/09/05 03:37:07;;;;;;;;;;;;;;;;;;6184481;23;20076;-78
2022/09/05 03:39:52;;;;;;;5.05;1.70;;;;;;;;;;6183719;23;19912;-78
2022/09/05 03:42:29;;;;;;;8.30;2.05;;;;;;;;;;6157017;23;20067;-77
2022/09/05 03:44:59;;;;;;;8.07;1.73;;;;;;;;;;6156862;23;20063;-77
2022/09/05 03:47:43;;;;;;;7.45;2.03;;;;;;;;;;6184020;23;20382;-77
2022/09/05 03:50:09;;;;;;;3.75;1.73;;;;;;;;;;6183734;23;20071;-77
2022/09/05 03:52:34;;;;;;;;;;;;;;;;;;6184197;23;19997;-78
2022/09/05 03:55:05;;;;;;;4.65;1.73;;;;;;;;;;6183499;23;20263;-77
2022/09/05 03:57:49;;;;;;;6.13;2.20;;;;;;;;;;6157132;23;20020;-77
2022/09/05 04:00:19;;;;;;;4.47;2.03;;;;;;;;;;6183659;23;20017;-77
2022/09/05 04:02:57;;;;;;;6.35;1.95;;;;;;;;;;6157717;23;20037;-77
2022/09/05 04:05:41;;;;;;;5.97;2.20;;;;;;;;;;6157466;23;20476;-78
2022/09/05 04:08:33;;;;;;;5.00;3.25;;;;;;;;;;6157505;23;20013;-79
2022/09/05 04:10:59;;;;;;;5.57;2.72;;;;;;;;;;6153307;23;20013;-78
2022/09/05 04:13:27;;;;;;;6.55;2.25;;;;;;;;;;6156956;23;20083;-78
2022/09/05 04:16:03;;;;;;;4.18;1.90;;;;;;;;;;6155430;23;20015;-78
2022/09/05 04:18:40;;;;;;;6.90;1.70;;;;;;;;;;6183769;23;20012;-79
2022/09/05 04:21:20;;;;;;;6.20;2.20;;;;;;;;;;6157385;23;20635;-78
2022/09/05 04:24:04;;;;;;;10.13;2.10;;;;;;;;;;6183490;23;20088;-79
2022/09/05 04:26:38;;;;;;;5.28;1.90;;;;;;;;;;6158129;23;20064;-80
2022/09/05 04:29:07;;;;;;;6.30;2.15;;;;;;;;;;6183898;23;20016;-78
2022/09/05 04:31:44;;;;;;;7.53;2.05;;;;;;;;;;6183370;23;20005;-79
2022/09/05 04:34:28;;;;;;;6.45;2.20;;;;;;;;;;6157505;23;20020;-78
2022/09/05 04:36:58;;;;;;;8.95;2.20;;;;;;;;;;6156974;23;20019;-78
2022/09/05 04:39:24;;;;;;;5.97;2.03;;;;;;;;;;6132919;23;20033;-78
2022/09/05 04:42:06;;;;;;;6.43;2.10;;;;;;;;;;6157416;23;20013;-77
2022/09/05 04:44:36;;;;;;;5.95;2.33;;;;;;;;;;6157131;23;20013;-77
2022/09/05 04:47:22;;;;;;;4.32;2.28;;;;;;;;;;6132789;23;20040;-78
2022/09/05 04:49:53;;;;;;;6.30;2.13;;;;;;;;;;6156439;23;20038;-77
2022/09/05 04:52:21;;;;;;;8.55;3.05;;;;;;;;;;6182246;23;20088;-78
2022/09/05 04:54:48;;;;;;;8.98;2.50;;;;;;;;;;6183227;23;19997;-78
2022/09/05 04:57:18;;;;;;;7.15;2.35;;;;;;;;;;6132503;23;20092;-79
2022/09/05 04:59:49;;;;;;;9.20;3.20;;;;;;;;;;6132905;23;20009;-79
2022/09/05 05:02:21;;;;;;;7.13;2.38;;;;;;;;;;6183009;23;20535;-78
2022/09/05 05:04:47;;;;;;;7.13;2.97;;;;;;;;;;6157253;23;20017;-78
2022/09/05 05:07:12;;;;;;;;;;;;;;;;;;6157503;23;20380;-78
2022/09/05 05:09:43;;;;;;;11.63;3.08;;;;;;;;;;6183112;23;19908;-79
2022/09/05 05:12:21;;;;;;;5.55;2.25;;;;;;;;;;6157972;23;20067;-79
2022/09/05 05:14:51;;;;;;;5.90;2.10;;;;;;;;;;6157400;23;20009;-79
2022/09/05 05:17:29;;;;;;;4.10;2.10;;;;;;;;;;6132980;23;20040;-78
2022/09/05 05:20:00;;;;;;;4.72;2.28;;;;;;;;;;6157249;23;20096;-78
2022/09/05 05:22:26;;;;;;;6.32;2.33;;;;;;;;;;6157108;23;20016;-77
2022/09/05 05:24:51;;;;;;;;;;;;;;;;;;6183585;23;20001;-77
2022/09/05 05:27:18;;;;;;;5.03;2.03;;;;;;;;;;6183893;23;19908;-81
2022/09/05 05:29:51;;;;;;;6.95;2.25;;;;;;;;;;6159700;23;20051;-77
2022/09/05 05:32:18;;;;;;;6.25;2.28;;;;;;;;;;6158908;23;20028;-79
2022/09/05 05:34:45;;;;;;;5.80;2.53;;;;;;;;;;6159358;23;20381;-82
2022/09/05 05:37:14;;;;;;;5.40;2.15;;;;;;;;;;6134573;23;20013;-78
2022/09/05 05:39:43;;;;;;;7.05;2.40;;;;;;;;;;6184627;23;19997;-79
2022/09/05 05:42:13;;;;;;;7.05;2.72;;;;;;;;;;6159539;23;20020;-78
2022/09/05 05:44:39;;;;;;;7.05;2.28;;;;;;;;;;6160975;23;20083;-82
2022/09/05 05:47:04;;;;;;;;;;;;;;;;;;6137435;23;20012;-84
2022/09/05 05:49:49;;;;;;;5.85;2.25;;;;;;;;;;6186672;23;19904;-83
2022/09/05 05:52:14;;;;;;;8.25;2.05;;;;;;;;;;6187411;23;20017;-82
2022/09/05 05:54:40;;;;;;;;;;;;;;;;;;6187544;23;20001;-83
2022/09/05 05:57:24;;;;;;;4.28;2.00;;;;;;;;;;6155965;23;19940;-83
2022/09/05 06:00:02;;;;;;;8.27;2.17;;;;;;;;;;6156679;23;20021;-82
2022/09/05 06:02:56;;;;;;;7.80;2.15;;;;;;;;;;6156789;23;20017;-83
2022/09/05 06:05:29;;;;;;;7.75;2.20;;;;;;;;;;6156572;23;20029;-82
2022/09/05 06:07:55;;;;;;;6.15;2.20;;;;;;;;;;6131985;23;20014;-82
2022/09/05 06:10:20;;;;;;;;;;;;;;;;;;6157078;23;20017;-83
2022/09/05 06:13:06;;;;;;;6.18;2.60;;;;;;;;;;6181345;23;19915;-83
2022/09/05 06:15:34;;;;;;;3.70;1.92;;;;;;;;;;6157218;23;20016;-81
2022/09/05 06:18:19;;;;;;;8.82;2.00;;;;;;;;;;6156076;23;20440;-84
2022/09/05 06:20:51;;;;;;;7.28;3.30;;;;;;;;;;6156006;23;20024;-83
2022/09/05 06:23:35;;;;;;;4.90;2.80;;;;;;;;;;6155886;23;20072;-84
2022/09/05 06:26:11;;;;;;;7.97;3.55;;;;;;;;;;6157342;23;20013;-82
2022/09/05 06:28:57;;;;;;;7.82;2.97;;;;;;;;;;6156985;23;20010;-82
2022/09/05 06:31:41;;;;;;;6.00;2.78;;;;;;;;;;6157039;23;20017;-82
2022/09/05 06:34:12;;;;;;;6.63;2.15;;;;;;;;;;6156276;23;20083;-82
2022/09/05 06:36:43;;;;;;;7.15;2.10;;;;;;;;;;6155580;23;20010;-83
2022/09/05 06:39:27;;;;;;;6.38;2.13;;;;;;;;;;6155834;23;20013;-82
2022/09/05 06:42:12;;;;;;;6.43;1.85;;;;;;;;;;6156982;23;20381;-83
2022/09/05 06:44:43;;;;;;;5.03;2.05;;;;;;;;;;6155687;23;20096;-84
2022/09/05 06:47:13;;;;;;;7.63;1.98;;;;;;;;;;6155698;23;20013;-82
2022/09/05 06:49:42;;;;;;;3.88;1.77;;;;;;;;;;6155660;23;20454;-83
2022/09/05 06:52:14;;;;;;;5.32;1.73;;;;;;;;;;6157903;23;20010;-83
2022/09/05 06:54:51;;;;;;;7.00;2.05;;;;;;;;;;6157587;23;20016;-82
2022/09/05 06:57:20;;;;;;;5.57;2.00;;;;;;;;;;6155136;23;20017;-83
2022/09/05 06:59:48;;;;;;;9.02;3.38;;;;;;;;;;6155451;23;20127;-83
2022/09/05 07:02:17;;;;;;;6.05;2.33;;;;;;;;;;6155900;23;20385;-83
2022/09/05 07:04:52;;;;;;;4.68;2.50;;;;;;;;;;6131365;23;20350;-83
2022/09/05 07:07:18;;;;;;;4.25;2.10;;;;;;;;;;6155981;23;20010;-82
2022/09/05 07:09:43;;;;;;;;;;;;;;;;;;6157021;23;20009;-84
2022/09/05 07:12:28;;;;;;;5.25;1.65;;;;;;;;;;6180551;23;20043;-84
2022/09/05 07:14:55;;;;;;;5.28;1.70;;;;;;;;;;6156222;23;20093;-83
2022/09/05 07:17:31;;;;;;;4.93;1.73;;;;;;;;;;6155902;23;20052;-83
2022/09/05 07:19:58;;;;;;;5.00;1.67;;;;;;;;;;6131312;23;20041;-84
2022/09/05 07:22:27;;;;;;;4.68;1.85;;;;;;;;;;6131604;23;20006;-83
2022/09/05 07:24:53;;;;;;;6.80;1.90;;;;;;;;;;6131993;23;20014;-83
2022/09/05 07:27:18;;;;;;;;;;;;;;;;;;6158263;23;20004;-83
2022/09/05 07:29:44;;;;;;;12.57;2.05;;;;;;;;;;6158111;23;19979;-83
2022/09/05 07:32:09;;;;;;;;;;;;;;;;;;6156325;23;20005;-83
2022/09/05 07:34:35;;;;;;;3.60;1.27;;;;;;;;;;6180376;23;19940;-83
2022/09/05 07:37:03;;;;;;;8.07;1.80;;;;;;;;;;6155668;23;20528;-82
2022/09/05 07:39:34;;;;;;;3.95;1.55;;;;;;;;;;6155489;23;20045;-84
2022/09/05 07:42:01;;;;;;;4.65;1.50;;;;;;;;;;6180664;23;20021;-84
2022/09/05 07:44:34;;;;;;;3.25;2.00;;;;;;;;;;6132495;23;20001;-84
2022/09/05 07:47:02;;;;;;;5.35;1.60;;;;;;;;;;6131858;23;20017;-83
2022/09/05 07:49:28;;;;;;;3.08;1.50;;;;;;;;;;6155581;23;20052;-83
2022/09/05 07:51:53;;;;;;;;;;;;;;;;;;6182276;23;20017;-84
2022/09/05 07:54:22;;;;;;;3.95;1.63;;;;;;;;;;6185628;23;19991;-86
2022/09/05 07:56:59;;;;;;;9.55;2.03;;;;;;;;;;6182044;23;20021;-84
2022/09/05 07:59:24;;;;;;;;;;;;;;;;;;6133045;23;20430;-83
2022/09/05 08:01:51;;;;;;;3.53;1.20;;;;;;;;;;6159100;23;19912;-84
2022/09/05 08:04:22;;;;;;;3.97;1.30;;;;;;;;;;6132144;23;20021;-84
2022/09/05 08:06:51;;;;;;;4.25;1.40;;;;;;;;;;6131682;23;20021;-84
2022/09/05 08:09:18;;;;;;;1.75;1.00;;;;;;;;;;6181813;23;20012;-84
2022/09/05 08:11:44;;;;;;;4.47;1.20;;;;;;;;;;6132412;23;20386;-85
2022/09/05 08:14:09;;;;;;;;;;;;;;;;;;6158235;23;20008;-81
2022/09/05 08:16:34;;;;;;;2.42;0.88;;;;;;;;;;6182138;23;19909;-83
2022/09/05 08:19:00;;;;;;;;;;;;;;;;;;6157582;23;20001;-83
2022/09/05 08:21:44;;;;;;;1.42;0.90;;;;;;;;;;6156980;23;19915;-83
2022/09/05 08:24:12;;;;;;;1.77;1.00;;;;;;;;;;6181850;23;20019;-83
2022/09/05 08:26:41;;;;;;;3.63;0.80;;;;;;;;;;6156875;23;20485;-85
2022/09/05 08:29:15;;;;;;;3.40;1.10;;;;;;;;;;6133772;23;20013;-85
2022/09/05 08:31:50;;;;;;;1.70;1.05;;;;;;;;;;6157259;23;20088;-83
2022/09/05 08:34:17;;;;;;;3.40;1.25;;;;;;;;;;6156537;23;20016;-83
2022/09/05 08:36:49;;;;;;;2.17;0.90;;;;;;;;;;6156441;23;20005;-84
2022/09/05 08:39:24;;;;;;;1.65;0.90;;;;;;;;;;6157598;23;20382;-85
2022/09/05 08:42:02;;;;;;;2.20;0.90;;;;;;;;;;6156853;23;20036;-83
2022/09/05 08:44:41;;;;;;;2.92;0.98;;;;;;;;;;6131833;23;20041;-84
2022/09/05 08:47:25;;;;;;;2.10;0.90;;;;;;;;;;6132461;23;20442;-85
2022/09/05 08:50:20;;;;;;;2.88;1.13;;;;;;;;;;6158566;23;20071;-85
2022/09/05 08:52:49;;;;;;;1.83;1.10;;;;;;;;;;6131694;23;20037;-84
2022/09/05 08:55:18;;;;;;;1.92;0.95;;;;;;;;;;6159422;23;20381;-85
2022/09/05 08:57:58;;;;;;;1.85;0.98;;;;;;;;;;6133545;23;20075;-83
2022/09/05 09:00:25;;;;;;;3.17;1.00;;;;;;;;;;6160889;23;20445;-84
2022/09/05 09:03:10;;;;;;;1.35;0.93;;;;;;;;;;6159441;23;20429;-85
2022/09/05 09:05:36;;;;;;;1.50;0.82;;;;;;;;;;6161713;23;20460;-84
2022/09/05 09:08:12;;;;;;;2.63;0.90;;;;;;;;;;6160426;23;20002;-84
2022/09/05 09:10:40;;;;;;;3.05;0.82;;;;;;;;;;6134944;23;20009;-84
2022/09/05 09:13:07;;;;;;;2.67;0.70;;;;;;;;;;6158857;23;20025;-87
2022/09/05 09:15:35;;;;;;;3.10;0.80;;;;;;;;;;6158596;23;20021;-84
2022/09/05 09:18:06;;;;;;;1.50;0.90;;;;;;;;;;6137323;23;19997;-85
2022/09/05 09:20:32;;;;;;;1.95;1.10;;;;;;;;;;6134116;23;20101;-85
2022/09/05 09:22:58;;;;;;;1.38;0.90;;;;;;;;;;6159919;23;20025;-85
2022/09/05 09:25:26;;;;;;;2.13;0.80;;;;;;;;;;6158803;23;20024;-85
2022/09/05 09:27:52;;;;;;;1.73;0.80;;;;;;;;;;6159029;23;20002;-84
2022/09/05 09:30:17;;;;;;;3.28;1.13;;;;;;;;;;6162393;23;20024;-83
2022/09/05 09:32:44;;;;;;;4.90;1.30;;;;;;;;;;6111097;23;20033;-84
2022/09/05 09:35:18;;;;;;;2.22;1.10;;;;;;;;;;6158830;23;20009;-84
2022/09/05 09:38:02;;;;;;;1.70;0.90;;;;;;;;;;6185006;23;20052;-85
2022/09/05 09:40:38;;;;;;;1.90;0.73;;;;;;;;;;6159587;23;20017;-84
2022/09/05 09:43:22;;;;;;;2.92;1.10;;;;;;;;;;6156659;23;20017;-83
2022/09/05 09:45:51;;;;;;;1.65;0.90;;;;;;;;;;6158954;23;20021;-84
2022/09/05 09:48:20;;;;;;;1.85;1.17;;;;;;;;;;6161808;23;20370;-84
2022/09/05 09:50:55;;;;;;;2.05;1.10;;;;;;;;;;6158905;23;20017;-83
2022/09/05 09:53:39;;;;;;;1.38;0.80;;;;;;;;;;6162351;23;20037;-85
2022/09/05 09:56:05;;;;;;;2.40;1.58;;;;;;;;;;6159725;23;20504;-83
2022/09/05 09:58:31;;;;;;;1.27;0.85;;;;;;;;;;6157858;23;20445;-84
2022/09/05 10:00:59;;;;;;;1.85;0.90;;;;;;;;;;6160284;23;20020;-84
2022/09/05 10:03:26;;;;;;;3.90;1.50;;;;;;;;;;6158931;23;20072;-84
2022/09/05 10:06:10;;;;;;;1.33;0.80;;;;;;;;;;6158085;23;20017;-85
2022/09/05 10:08:40;;;;;;;1.17;0.80;;;;;;;;;;6157861;23;20072;-84
2022/09/05 10:11:16;;;;;;;2.95;0.95;;;;;;;;;;6157948;23;20071;-85
2022/09/05 10:13:56;;;;;;;1.15;0.77;;;;;;;;;;6132488;23;20009;-84
2022/09/05 10:16:28;;;;;;;3.78;0.80;;;;;;;;;;6158807;23;20040;-85
2022/09/05 10:19:03;;;;;;;1.90;0.80;;;;;;;;;;6112431;23;20024;-85
2022/09/05 10:21:32;;;;;;;1.33;0.80;;;;;;;;;;6161951;23;20494;-86
2022/09/05 10:24:23;;;;;;;1.67;0.90;;;;;;;;;;6158411;23;20010;-85
2022/09/05 10:27:18;;;;;;;2.05;0.90;;;;;;;;;;6134743;23;20013;-88
2022/09/05 10:29:47;;;;;;;3.08;1.00;;;;;;;;;;6164508;23;20013;-84
2022/09/05 10:32:15;;;;;;;1.90;0.98;;;;;;;;;;6139429;23;20096;-85
2022/09/05 10:35:06;;;;;;;1.83;1.10;;;;;;;;;;6160429;23;20060;-85
2022/09/05 10:37:37;;;;;;;0.95;0.70;;;;;;;;;;6160025;23;20009;-84
2022/09/05 10:40:04;;;;;;;1.00;0.70;;;;;;;;;;6137531;23;20009;-85
2022/09/05 10:42:30;;;;;;;1.48;0.73;;;;;;;;;;6136269;23;20096;-86
2022/09/05 10:44:56;;;;;;;0.93;0.68;;;;;;;;;;6160749;23;20468;-86
2022/09/05 10:47:34;;;;;;;1.48;0.90;;;;;;;;;;6112876;23;20009;-85
2022/09/05 10:50:28;;;;;;;1.88;0.90;;;;;;;;;;6161497;23;20540;-86
2022/09/05 10:53:13;;;;;;;0.93;0.80;;;;;;;;;;6160877;23;20014;-83
2022/09/05 10:55:57;;;;;;;2.15;1.30;;;;;;;;;;6161913;23;20005;-85
2022/09/05 10:58:32;;;;;;;1.70;0.90;;;;;;;;;;6160618;23;20022;-86
2022/09/05 11:01:15;;;;;;;1.40;0.80;;;;;;;;;;6162212;23;20014;-86
2022/09/05 11:03:42;;;;;;;0.82;0.65;;;;;;;;;;6163888;23;20021;-87
2022/09/05 11:06:10;;;;;;;1.63;0.52;;;;;;;;;;6160708;23;20033;-85
2022/09/05 11:08:41;;;;;;;0.93;0.50;;;;;;;;;;6136100;23;20017;-85
2022/09/05 11:11:21;;;;;;;1.27;0.52;;;;;;;;;;6159568;23;20021;-84
2022/09/05 11:13:48;;;;;;;3.53;0.60;;;;;;;;;;6133505;23;20016;-85
2022/09/05 11:16:23;;;;;;;1.42;0.60;;;;;;;;;;6133437;23;20426;-85
2022/09/05 11:18:49;;;;;;;0.60;0.50;;;;;;;;;;6158411;23;20033;-85
2022/09/05 11:21:17;;;;;;;1.42;0.60;;;;;;;;;;6160152;23;20053;-83
2022/09/05 11:23:44;;;;;;;1.50;0.73;;;;;;;;;;6160626;23;20028;-85
2022/09/05 11:26:30;;;;;;;0.88;0.60;;;;;;;;;;6160539;23;20453;-83
2022/09/05 11:28:55;;;;;;;3.25;1.15;;;;;;;;;;6134393;23;20021;-84
2022/09/05 11:31:22;;;;;;;2.17;0.80;;;;;;;;;;6158359;23;20429;-83
2022/09/05 11:33:47;;;;;;;1.40;0.88;;;;;;;;;;6133492;23;20017;-84
2022/09/05 11:36:19;;;;;;;1.55;0.90;;;;;;;;;;6157151;23;20029;-84
2022/09/05 11:38:58;;;;;;;1.67;0.95;;;;;;;;;;6158701;23;20013;-84
2022/09/05 11:41:27;;;;;;;1.73;1.00;;;;;;;;;;6160682;23;20020;-83
2022/09/05 11:44:11;;;;;;;1.67;1.10;;;;;;;;;;6159432;23;20001;-86
2022/09/05 11:46:45;;;;;;;1.77;0.77;;;;;;;;;;6157138;23;20096;-83
2022/09/05 11:49:30;;;;;;;1.63;0.80;;;;;;;;;;6158181;23;20089;-82
2022/09/05 11:52:15;;;;;;;1.25;0.80;;;;;;;;;;6158216;23;20096;-83
2022/09/05 11:54:50;;;;;;;1.80;1.00;;;;;;;;;;6158067;23;20009;-84
2022/09/05 11:57:18;;;;;;;2.72;0.75;;;;;;;;;;6159414;23;20017;-84
2022/09/05 12:00:03;;;;;;;1.85;0.80;;;;;;;;;;6159265;23;20006;-84
2022/09/05 12:02:40;;;;;;;1.50;0.73;;;;;;;;;;6160785;23;20520;-84
2022/09/05 12:05:06;;;;;;;1.10;0.70;;;;;;;;;;6136191;23;20087;-84
2022/09/05 12:07:37;;;;;;;1.20;0.80;;;;;;;;;;6162036;23;20005;-85
2022/09/05 12:10:02;;;;;;;0.73;0.60;;;;;;;;;;6134914;23;20021;-85
2022/09/05 12:12:36;;;;;;;1.45;0.80;;;;;;;;;;6162928;23;20001;-85
2022/09/05 12:15:15;;;;;;;1.38;0.70;;;;;;;;;;6164980;23;20017;-84
2022/09/05 12:18:01;;;;;;;0.80;0.50;;;;;;;;;;6160717;23;20005;-84
2022/09/05 12:20:36;;;;;;;1.58;0.60;;;;;;;;;;6163457;23;20037;-85
2022/09/05 12:23:10;;;;;;;1.60;0.88;;;;;;;;;;6162110;23;20037;-86
2022/09/05 12:25:39;;;;;;;0.88;0.55;;;;;;;;;;6188551;23;20064;-86
2022/09/05 12:28:41;;;;;;;0.98;0.50;;;;;;;;;;5126566;27;20414;-84
2022/09/05 12:31:12;;;;;;;0.77;0.65;;;;;;;;;;5100473;28;20063;-87
2022/09/05 12:33:37;;;;;;;0.55;0.43;;;;;;;;;;5100770;28;20095;-87
2022/09/05 12:36:35;;;;;;;1.17;0.68;;;;;;;;;;5081068;28;20060;-85
2022/09/05 12:39:16;;;;;;;2.45;0.60;;;;;;;;;;5053402;28;20040;-85
2022/09/05 12:42:01;;;;;;;0.85;0.50;;;;;;;;;;5069327;28;20123;-85
2022/09/05 12:44:53;;;;;;;0.85;0.60;;;;;;;;;;5113681;28;20115;-83
2022/09/05 12:47:20;;;;;;;1.27;0.60;;;;;;;;;;5079364;28;20043;-85
2022/09/05 12:49:48;;;;;;;1.65;0.60;;;;;;;;;;5114732;28;20020;-85
2022/09/05 12:52:15;;;;;;;0.90;0.60;;;;;;;;;;5098207;28;20114;-86
2022/09/05 12:54:46;;;;;;;1.40;0.57;;;;;;;;;;5075533;28;20032;-84
2022/09/05 12:57:12;;;;;;;1.67;0.52;;;;;;;;;;5112901;28;20048;-85
2022/09/05 12:59:37;;;;;;;1.13;0.60;;;;;;;;;;5084027;28;20024;-85
2022/09/05 13:02:06;;;;;;;1.05;0.55;;;;;;;;;;5095029;28;20460;-85
2022/09/05 13:05:00;;;;;;;2.17;0.60;;;;;;;;;;5071399;28;20031;-85
2022/09/05 13:07:31;;;;;;;1.63;0.70;;;;;;;;;;5106303;28;20050;-85
2022/09/05 13:09:58;;;;;;;2.28;0.90;;;;;;;;;;5099288;28;20087;-85
2022/09/05 13:12:31;;;;;;;1.80;0.82;;;;;;;;;;5057704;28;20023;-85
2022/09/05 13:14:57;;;;;;;2.38;1.00;;;;;;;;;;5113122;28;20127;-85
2022/09/05 13:17:29;;;;;;;2.20;0.80;;;;;;;;;;5094900;28;20051;-85
2022/09/05 13:19:55;;;;;;;2.42;0.85;;;;;;;;;;5095310;28;20542;-85
2022/09/05 13:22:21;;;;;;;1.77;0.90;;;;;;;;;;5077083;28;20120;-85
2022/09/05 13:24:49;;;;;;;3.78;0.82;;;;;;;;;;5081990;28;20111;-84
2022/09/05 13:27:28;;;;;;;1.42;0.60;;;;;;;;;;5102314;28;20052;-83
2022/09/05 13:29:54;;;;;;;1.10;0.50;;;;;;;;;;5091943;28;20039;-85
2022/09/05 13:32:20;;;;;;;1.25;0.60;;;;;;;;;;5092647;28;20020;-85
2022/09/05 13:35:14;;;;;;;1.92;0.70;;;;;;;;;;5110210;28;20047;-85
2022/09/05 13:38:12;;;;;;;1.00;0.65;;;;;;;;;;5110167;28;20508;-84
2022/09/05 13:40:45;;;;;;;1.35;0.50;;;;;;;;;;5074519;28;20560;-85
2022/09/05 13:43:20;;;;;;;0.77;0.60;;;;;;;;;;5090143;28;20091;-85
2022/09/05 13:46:02;;;;;;;0.43;0.35;;;;;;;;;;5069271;28;20097;-85
2022/09/05 13:48:30;;;;;;;1.38;0.55;;;;;;;;;;5098315;28;20036;-87
2022/09/05 13:50:58;;;;;;;1.00;0.60;;;;;;;;;;5099933;28;20013;-88
2022/09/05 13:53:33;;;;;;;0.63;0.40;;;;;;;;;;5082533;28;20084;-86
2022/09/05 13:56:19;;;;;;;1.15;0.40;;;;;;;;;;5098153;28;20411;-84
2022/09/05 13:58:45;;;;;;;1.42;0.60;;;;;;;;;;5073987;28;20486;-87
2022/09/05 14:01:37;;;;;;;1.10;0.60;;;;;;;;;;5057215;28;20052;-86
2022/09/05 14:04:12;;;;;;;1.17;0.60;;;;;;;;;;5067889;28;20414;-84
2022/09/05 14:07:00;;;;;;;0.90;0.60;;;;;;;;;;5081373;28;20040;-85
2022/09/05 14:09:41;;;;;;;0.85;0.50;;;;;;;;;;5083197;28;20119;-84
2022/09/05 14:12:10;;;;;;;2.00;0.50;;;;;;;;;;5099726;28;20039;-85
2022/09/05 14:14:36;;;;;;;1.35;0.60;;;;;;;;;;5081296;28;20028;-84
2022/09/05 14:17:03;;;;;;;0.93;0.65;;;;;;;;;;5090244;28;20032;-84
2022/09/05 14:22:14;;;;;;;3.67;1.00;;;;;;;;;;5085000;28;20036;-84
2022/09/05 14:24:41;;;;;;;1.20;0.80;;;;;;;;;;5098427;28;20027;-84
2022/09/05 14:27:11;;;;;;;3.63;0.82;;;;;;;;;;5062993;28;20044;-86
2022/09/05 14:29:39;;;;;;;3.45;0.82;;;;;;;;;;5041300;28;20116;-89
2022/09/05 14:32:17;;;;;;;5.57;0.80;;;;;;;;;;5061751;28;20104;-84
2022/09/05 14:34:49;;;;;;;3.53;0.70;;;;;;;;;;5043934;28;20033;-84
2022/09/05 14:37:33;;;;;;;3.33;0.80;;;;;;;;;;5062545;28;20415;-85
2022/09/05 14:39:58;;;;;;;3.22;0.80;;;;;;;;;;5076278;28;20059;-84
2022/09/05 14:42:34;;;;;;;1.73;0.70;;;;;;;;;;5060807;28;20025;-85
2022/09/05 14:44:59;;;;;;;3.37;0.90;;;;;;;;;;5060218;28;20040;-85
2022/09/05 14:47:25;;;;;;;2.40;0.75;;;;;;;;;;5044704;28;20556;-84
2022/09/05 14:49:53;;;;;;;2.38;0.88;;;;;;;;;;5042968;28;20067;-84
2022/09/05 14:52:19;;;;;;;3.90;1.23;;;;;;;;;;5046575;28;20476;-85
2022/09/05 14:54:50;;;;;;;3.47;1.48;;;;;;;;;;5054646;28;20058;-87
2022/09/05 14:57:17;;;;;;;4.20;2.60;;;;;;;;;;5047992;28;20055;-85
2022/09/05 14:59:43;;;;;;;3.85;2.20;;;;;;;;;;5059372;28;20020;-84
2022/09/05 15:02:08;;;;;;;2.85;1.45;;;;;;;;;;5064994;28;20041;-84
2022/09/05 15:04:41;;;;;;;2.08;1.10;;;;;;;;;;5048418;28;20035;-87
2022/09/05 15:07:15;;;;;;;6.43;1.20;;;;;;;;;;5048183;28;20063;-89
2022/09/05 15:09:40;;;;;;;1.38;0.80;;;;;;;;;;5063010;28;20032;-85
2022/09/05 15:12:17;;;;;;;2.88;1.20;;;;;;;;;;5042779;28;20479;-84
2022/09/05 15:14:49;;;;;;;2.38;1.15;;;;;;;;;;5024957;28;20029;-85
2022/09/05 15:17:18;;;;;;;2.53;1.08;;;;;;;;;;5062183;28;20036;-86
2022/09/05 15:19:54;;;;;;;1.63;0.80;;;;;;;;;;5040590;28;20062;-84
2022/09/05 15:22:27;;;;;;;1.20;0.80;;;;;;;;;;5073451;28;20048;-87
2022/09/05 15:25:05;;;;;;;2.00;0.95;;;;;;;;;;5042732;28;20044;-87
2022/09/05 15:27:31;;;;;;;1.80;0.90;;;;;;;;;;5082950;28;20065;-85